sensor_id;sensor_type;location;lat;lon;timestamp;pressure;altitude;pressure_sealevel;temperature;humidity
40946;BME280;55635;50.264;11.918;2023-10-13T00:01:52;95684.13;;;16.71;100.00
40946;BME280;55635;50.264;11.918;2023-10-13T00:04:35;95684.56;;;16.68;100.00
40946;BME280;55635;50.264;11.918;2023-10-13T00:07:18;95686.47;;;16.61;100.00
40946;BME280;55635;50.264;11.918;2023-10-13T00:09:59;95676.09;;;16.90;100.00
40946;BME280;55635;50.264;11.918;2023-10-13T00:12:40;95684.13;;;16.90;100.00
40946;BME280;55635;50.264;11.918;2023-10-13T00:15:21;95673.34;;;16.78;100.00
40946;BME280;55635;50.264;11.918;2023-10-13T00:18:08;95679.16;;;16.75;100.00
40946;BME280;55635;50.264;11.918;2023-10-13T00:20:53;95678.41;;;16.86;100.00
40946;BME280;55635;50.264;11.918;2023-10-13T00:23:37;95685.03;;;16.83;100.00
40946;BME280;55635;50.264;11.918;2023-10-13T00:26:20;95684.00;;;17.03;100.00
40946;BME280;55635;50.264;11.918;2023-10-13T00:29:06;95684.78;;;16.85;100.00
40946;BME280;55635;50.264;11.918;2023-10-13T00:31:47;95683.38;;;17.01;100.00
40946;BME280;55635;50.264;11.918;2023-10-13T00:34:29;95673.03;;;17.04;100.00
40946;BME280;55635;50.264;11.918;2023-10-13T00:37:09;95686.75;;;16.96;100.00
40946;BME280;55635;50.264;11.918;2023-10-13T00:39:53;95665.69;;;17.00;100.00
40946;BME280;55635;50.264;11.918;2023-10-13T00:42:37;95671.19;;;16.86;100.00
40946;BME280;55635;50.264;11.918;2023-10-13T00:45:33;95678.53;;;16.48;100.00
40946;BME280;55635;50.264;11.918;2023-10-13T00:48:15;95675.50;;;16.69;100.00
40946;BME280;55635;50.264;11.918;2023-10-13T00:50:57;95684.72;;;16.73;100.00
40946;BME280;55635;50.264;11.918;2023-10-13T00:53:43;95685.78;;;16.72;100.00
40946;BME280;55635;50.264;11.918;2023-10-13T00:56:26;95677.31;;;16.94;100.00
40946;BME280;55635;50.264;11.918;2023-10-13T00:59:16;95684.38;;;17.24;100.00
40946;BME280;55635;50.264;11.918;2023-10-13T01:01:58;95684.44;;;17.18;100.00
40946;BME280;55635;50.264;11.918;2023-10-13T01:04:39;95686.50;;;17.34;100.00
40946;BME280;55635;50.264;11.918;2023-10-13T01:07:20;95678.66;;;17.51;100.00
40946;BME280;55635;50.264;11.918;2023-10-13T01:10:10;95679.44;;;17.39;100.00
40946;BME280;55635;50.264;11.918;2023-10-13T01:12:55;95671.56;;;17.26;100.00
40946;BME280;55635;50.264;11.918;2023-10-13T01:15:36;95666.41;;;17.25;100.00
40946;BME280;55635;50.264;11.918;2023-10-13T01:18:17;95662.69;;;17.26;100.00
40946;BME280;55635;50.264;11.918;2023-10-13T01:20:58;95667.28;;;17.37;100.00
40946;BME280;55635;50.264;11.918;2023-10-13T01:23:39;95661.47;;;17.40;100.00
40946;BME280;55635;50.264;11.918;2023-10-13T01:26:23;95640.75;;;17.17;100.00
40946;BME280;55635;50.264;11.918;2023-10-13T01:29:06;95661.88;;;17.25;100.00
40946;BME280;55635;50.264;11.918;2023-10-13T01:31:55;95660.13;;;17.31;100.00
40946;BME280;55635;50.264;11.918;2023-10-13T01:34:36;95659.53;;;17.47;100.00
40946;BME280;55635;50.264;11.918;2023-10-13T01:37:18;95653.28;;;17.35;100.00
40946;BME280;55635;50.264;11.918;2023-10-13T01:40:00;95655.19;;;17.46;100.00
40946;BME280;55635;50.264;11.918;2023-10-13T01:42:40;95657.56;;;17.24;100.00
40946;BME280;55635;50.264;11.918;2023-10-13T01:45:22;95660.69;;;17.21;100.00
40946;BME280;55635;50.264;11.918;2023-10-13T01:48:09;95656.25;;;17.15;100.00
40946;BME280;55635;50.264;11.918;2023-10-13T01:50:50;95662.25;;;17.11;100.00
40946;BME280;55635;50.264;11.918;2023-10-13T01:53:41;95660.03;;;17.08;100.00
40946;BME280;55635;50.264;11.918;2023-10-13T01:56:22;95653.91;;;16.82;100.00
40946;BME280;55635;50.264;11.918;2023-10-13T01:59:11;95652.94;;;16.59;100.00
40946;BME280;55635;50.264;11.918;2023-10-13T02:01:52;95642.94;;;16.72;100.00
40946;BME280;55635;50.264;11.918;2023-10-13T02:04:37;95652.56;;;16.55;100.00
40946;BME280;55635;50.264;11.918;2023-10-13T02:07:23;95655.88;;;16.51;100.00
40946;BME280;55635;50.264;11.918;2023-10-13T02:10:11;95651.84;;;16.42;100.00
40946;BME280;55635;50.264;11.918;2023-10-13T02:12:53;95641.03;;;16.73;100.00
40946;BME280;55635;50.264;11.918;2023-10-13T02:15:36;95632.56;;;16.33;100.00
40946;BME280;55635;50.264;11.918;2023-10-13T02:18:19;95642.13;;;16.47;100.00
40946;BME280;55635;50.264;11.918;2023-10-13T02:21:14;95652.56;;;16.55;100.00
40946;BME280;55635;50.264;11.918;2023-10-13T02:23:55;95641.16;;;16.42;100.00
40946;BME280;55635;50.264;11.918;2023-10-13T02:26:45;95645.28;;;16.62;100.00
40946;BME280;55635;50.264;11.918;2023-10-13T02:29:26;95635.94;;;16.71;100.00
40946;BME280;55635;50.264;11.918;2023-10-13T02:32:08;95636.75;;;16.72;100.00
40946;BME280;55635;50.264;11.918;2023-10-13T02:34:59;95643.28;;;16.76;100.00
40946;BME280;55635;50.264;11.918;2023-10-13T02:37:47;95631.66;;;16.82;100.00
40946;BME280;55635;50.264;11.918;2023-10-13T02:40:35;95628.78;;;16.83;100.00
40946;BME280;55635;50.264;11.918;2023-10-13T02:43:16;95617.19;;;16.90;100.00
40946;BME280;55635;50.264;11.918;2023-10-13T02:45:57;95625.53;;;16.63;100.00
40946;BME280;55635;50.264;11.918;2023-10-13T02:48:39;95626.41;;;16.32;100.00
40946;BME280;55635;50.264;11.918;2023-10-13T02:51:21;95630.94;;;16.57;100.00
40946;BME280;55635;50.264;11.918;2023-10-13T02:54:06;95634.03;;;16.54;100.00
40946;BME280;55635;50.264;11.918;2023-10-13T02:56:51;95605.63;;;16.53;100.00
40946;BME280;55635;50.264;11.918;2023-10-13T02:59:38;95615.47;;;16.59;100.00
40946;BME280;55635;50.264;11.918;2023-10-13T03:02:26;95624.56;;;16.51;100.00
40946;BME280;55635;50.264;11.918;2023-10-13T03:05:10;95622.03;;;16.38;100.00
40946;BME280;55635;50.264;11.918;2023-10-13T03:07:50;95630.63;;;16.65;100.00
40946;BME280;55635;50.264;11.918;2023-10-13T03:10:32;95625.97;;;16.60;100.00
40946;BME280;55635;50.264;11.918;2023-10-13T03:13:13;95628.72;;;16.90;100.00
40946;BME280;55635;50.264;11.918;2023-10-13T03:15:54;95622.97;;;17.05;100.00
40946;BME280;55635;50.264;11.918;2023-10-13T03:18:35;95617.75;;;16.92;100.00
40946;BME280;55635;50.264;11.918;2023-10-13T03:21:17;95616.88;;;16.98;100.00
40946;BME280;55635;50.264;11.918;2023-10-13T03:24:10;95610.19;;;16.70;100.00
40946;BME280;55635;50.264;11.918;2023-10-13T03:26:54;95609.91;;;16.60;100.00
40946;BME280;55635;50.264;11.918;2023-10-13T03:29:39;95605.06;;;16.69;100.00
40946;BME280;55635;50.264;11.918;2023-10-13T03:32:34;95591.44;;;16.70;100.00
40946;BME280;55635;50.264;11.918;2023-10-13T03:35:16;95603.47;;;16.98;100.00
40946;BME280;55635;50.264;11.918;2023-10-13T03:38:06;95598.56;;;16.76;100.00
40946;BME280;55635;50.264;11.918;2023-10-13T03:40:57;95599.19;;;16.78;100.00
40946;BME280;55635;50.264;11.918;2023-10-13T03:44:00;95586.38;;;16.80;100.00
40946;BME280;55635;50.264;11.918;2023-10-13T03:46:58;95598.75;;;16.81;100.00
40946;BME280;55635;50.264;11.918;2023-10-13T03:49:58;95592.03;;;16.91;100.00
40946;BME280;55635;50.264;11.918;2023-10-13T03:52:56;95589.72;;;16.76;100.00
40946;BME280;55635;50.264;11.918;2023-10-13T03:55:40;95588.38;;;16.85;100.00
40946;BME280;55635;50.264;11.918;2023-10-13T03:58:28;95590.53;;;16.76;100.00
40946;BME280;55635;50.264;11.918;2023-10-13T04:01:10;95586.47;;;16.74;100.00
40946;BME280;55635;50.264;11.918;2023-10-13T04:03:52;95589.94;;;16.93;100.00
40946;BME280;55635;50.264;11.918;2023-10-13T04:06:50;95575.72;;;16.92;100.00
40946;BME280;55635;50.264;11.918;2023-10-13T04:09:42;95579.69;;;16.71;100.00
40946;BME280;55635;50.264;11.918;2023-10-13T04:12:29;95568.09;;;16.59;100.00
40946;BME280;55635;50.264;11.918;2023-10-13T04:15:29;95588.03;;;16.81;100.00
40946;BME280;55635;50.264;11.918;2023-10-13T04:18:21;95587.09;;;17.06;100.00
40946;BME280;55635;50.264;11.918;2023-10-13T04:21:27;95587.84;;;16.95;100.00
40946;BME280;55635;50.264;11.918;2023-10-13T04:24:20;95566.59;;;16.81;100.00
40946;BME280;55635;50.264;11.918;2023-10-13T04:27:20;95576.03;;;17.02;100.00
40946;BME280;55635;50.264;11.918;2023-10-13T04:30:20;95575.06;;;16.97;100.00
40946;BME280;55635;50.264;11.918;2023-10-13T04:33:28;95557.72;;;16.99;100.00
40946;BME280;55635;50.264;11.918;2023-10-13T04:36:14;95571.84;;;16.88;100.00
40946;BME280;55635;50.264;11.918;2023-10-13T04:39:07;95565.38;;;16.96;100.00
40946;BME280;55635;50.264;11.918;2023-10-13T04:41:48;95567.63;;;16.99;100.00
40946;BME280;55635;50.264;11.918;2023-10-13T04:44:29;95565.16;;;16.97;100.00
40946;BME280;55635;50.264;11.918;2023-10-13T04:47:21;95568.28;;;17.12;100.00
40946;BME280;55635;50.264;11.918;2023-10-13T04:50:02;95566.53;;;17.18;100.00
40946;BME280;55635;50.264;11.918;2023-10-13T04:53:02;95558.25;;;17.19;100.00
40946;BME280;55635;50.264;11.918;2023-10-13T04:55:43;95570.25;;;17.17;100.00
40946;BME280;55635;50.264;11.918;2023-10-13T04:58:40;95560.97;;;17.01;100.00
40946;BME280;55635;50.264;11.918;2023-10-13T05:01:40;95557.03;;;17.04;100.00
40946;BME280;55635;50.264;11.918;2023-10-13T05:04:41;95567.00;;;17.15;100.00
40946;BME280;55635;50.264;11.918;2023-10-13T05:07:41;95557.50;;;17.30;100.00
40946;BME280;55635;50.264;11.918;2023-10-13T05:10:41;95564.03;;;17.34;100.00
40946;BME280;55635;50.264;11.918;2023-10-13T05:13:40;95554.03;;;17.41;100.00
40946;BME280;55635;50.264;11.918;2023-10-13T05:16:40;95559.03;;;17.38;100.00
40946;BME280;55635;50.264;11.918;2023-10-13T05:19:39;95560.56;;;17.46;100.00
40946;BME280;55635;50.264;11.918;2023-10-13T05:22:39;95563.81;;;17.36;100.00
40946;BME280;55635;50.264;11.918;2023-10-13T05:25:38;95560.31;;;17.35;100.00
40946;BME280;55635;50.264;11.918;2023-10-13T05:28:37;95548.22;;;17.45;100.00
40946;BME280;55635;50.264;11.918;2023-10-13T05:31:37;95557.06;;;17.45;100.00
40946;BME280;55635;50.264;11.918;2023-10-13T05:34:36;95554.16;;;17.47;100.00
40946;BME280;55635;50.264;11.918;2023-10-13T05:37:36;95552.91;;;17.19;100.00
40946;BME280;55635;50.264;11.918;2023-10-13T05:40:35;95560.66;;;17.39;100.00
40946;BME280;55635;50.264;11.918;2023-10-13T05:43:34;95559.13;;;17.31;100.00
40946;BME280;55635;50.264;11.918;2023-10-13T05:46:34;95552.81;;;17.56;100.00
40946;BME280;55635;50.264;11.918;2023-10-13T05:49:18;95553.63;;;17.56;100.00
40946;BME280;55635;50.264;11.918;2023-10-13T05:51:59;95551.72;;;17.45;100.00
40946;BME280;55635;50.264;11.918;2023-10-13T05:54:47;95556.16;;;17.51;100.00
40946;BME280;55635;50.264;11.918;2023-10-13T05:57:47;95562.69;;;17.55;100.00
40946;BME280;55635;50.264;11.918;2023-10-13T06:00:46;95566.84;;;17.39;100.00
40946;BME280;55635;50.264;11.918;2023-10-13T06:03:46;95568.81;;;17.32;100.00
40946;BME280;55635;50.264;11.918;2023-10-13T06:06:45;95568.84;;;17.44;100.00
40946;BME280;55635;50.264;11.918;2023-10-13T06:09:45;95563.31;;;17.27;100.00
40946;BME280;55635;50.264;11.918;2023-10-13T06:12:44;95563.16;;;17.22;100.00
40946;BME280;55635;50.264;11.918;2023-10-13T06:15:44;95557.38;;;17.37;100.00
40946;BME280;55635;50.264;11.918;2023-10-13T06:18:43;95560.88;;;17.37;100.00
40946;BME280;55635;50.264;11.918;2023-10-13T06:21:43;95539.22;;;17.39;100.00
40946;BME280;55635;50.264;11.918;2023-10-13T06:24:44;95559.47;;;17.35;100.00
40946;BME280;55635;50.264;11.918;2023-10-13T06:27:43;95557.50;;;17.30;100.00
40946;BME280;55635;50.264;11.918;2023-10-13T06:30:52;95547.38;;;17.44;100.00
40946;BME280;55635;50.264;11.918;2023-10-13T06:33:36;95543.41;;;17.47;100.00
40946;BME280;55635;50.264;11.918;2023-10-13T06:36:25;95550.16;;;17.37;100.00
40946;BME280;55635;50.264;11.918;2023-10-13T06:39:08;95546.19;;;17.58;100.00
40946;BME280;55635;50.264;11.918;2023-10-13T06:42:15;95527.13;;;17.48;100.00
40946;BME280;55635;50.264;11.918;2023-10-13T06:44:57;95541.41;;;17.60;100.00
40946;BME280;55635;50.264;11.918;2023-10-13T06:47:40;95547.97;;;17.46;100.00
40946;BME280;55635;50.264;11.918;2023-10-13T06:50:23;95543.50;;;17.58;100.00
40946;BME280;55635;50.264;11.918;2023-10-13T06:53:09;95535.09;;;17.55;100.00
40946;BME280;55635;50.264;11.918;2023-10-13T06:55:53;95526.72;;;17.63;100.00
40946;BME280;55635;50.264;11.918;2023-10-13T06:58:39;95534.63;;;17.58;100.00
40946;BME280;55635;50.264;11.918;2023-10-13T07:01:24;95537.78;;;17.66;100.00
40946;BME280;55635;50.264;11.918;2023-10-13T07:04:07;95553.63;;;17.56;100.00
40946;BME280;55635;50.264;11.918;2023-10-13T07:06:54;95547.25;;;17.69;100.00
40946;BME280;55635;50.264;11.918;2023-10-13T07:09:38;95548.25;;;17.56;100.00
40946;BME280;55635;50.264;11.918;2023-10-13T07:12:30;95543.63;;;17.86;99.80
40946;BME280;55635;50.264;11.918;2023-10-13T07:15:13;95530.69;;;17.72;100.00
40946;BME280;55635;50.264;11.918;2023-10-13T07:17:57;95530.75;;;17.54;99.43
40946;BME280;55635;50.264;11.918;2023-10-13T07:20:41;95523.56;;;17.77;97.48
40946;BME280;55635;50.264;11.918;2023-10-13T07:23:24;95537.13;;;17.82;98.33
40946;BME280;55635;50.264;11.918;2023-10-13T07:26:06;95543.06;;;17.96;97.43
40946;BME280;55635;50.264;11.918;2023-10-13T07:28:49;95529.66;;;17.84;96.85
40946;BME280;55635;50.264;11.918;2023-10-13T07:31:32;95525.69;;;17.99;95.75
40946;BME280;55635;50.264;11.918;2023-10-13T07:34:13;95531.03;;;17.99;94.75
40946;BME280;55635;50.264;11.918;2023-10-13T07:37:05;95513.34;;;17.98;94.34
40946;BME280;55635;50.264;11.918;2023-10-13T07:39:53;95523.47;;;18.19;93.99
40946;BME280;55635;50.264;11.918;2023-10-13T07:42:38;95537.59;;;18.03;92.58
40946;BME280;55635;50.264;11.918;2023-10-13T07:45:23;95530.00;;;18.11;92.64
40946;BME280;55635;50.264;11.918;2023-10-13T07:48:08;95531.41;;;18.37;91.50
40946;BME280;55635;50.264;11.918;2023-10-13T07:51:09;95528.25;;;18.40;89.59
40946;BME280;55635;50.264;11.918;2023-10-13T07:54:03;95524.94;;;18.38;88.54
40946;BME280;55635;50.264;11.918;2023-10-13T07:56:49;95526.84;;;18.49;89.41
40946;BME280;55635;50.264;11.918;2023-10-13T07:59:31;95514.69;;;18.58;88.37
40946;BME280;55635;50.264;11.918;2023-10-13T08:02:12;95520.34;;;18.85;86.79
40946;BME280;55635;50.264;11.918;2023-10-13T08:04:53;95520.22;;;19.20;83.94
40946;BME280;55635;50.264;11.918;2023-10-13T08:07:33;95490.19;;;19.11;84.29
40946;BME280;55635;50.264;11.918;2023-10-13T08:10:15;95509.13;;;19.33;82.53
40946;BME280;55635;50.264;11.918;2023-10-13T08:12:57;95519.31;;;19.59;82.27
40946;BME280;55635;50.264;11.918;2023-10-13T08:15:44;95509.47;;;19.08;84.32
40946;BME280;55635;50.264;11.918;2023-10-13T08:18:28;95522.34;;;19.06;85.18
40946;BME280;55635;50.264;11.918;2023-10-13T08:21:13;95515.31;;;19.17;84.99
40946;BME280;55635;50.264;11.918;2023-10-13T08:23:57;95508.22;;;19.11;85.21
40946;BME280;55635;50.264;11.918;2023-10-13T08:26:40;95515.66;;;18.92;86.28
40946;BME280;55635;50.264;11.918;2023-10-13T08:29:58;95509.00;;;19.11;86.58
40946;BME280;55635;50.264;11.918;2023-10-13T08:32:39;95515.44;;;19.38;85.33
40946;BME280;55635;50.264;11.918;2023-10-13T08:35:40;95512.44;;;19.51;85.36
40946;BME280;55635;50.264;11.918;2023-10-13T08:38:35;95515.00;;;19.41;84.94
40946;BME280;55635;50.264;11.918;2023-10-13T08:41:31;95505.69;;;19.49;83.70
40946;BME280;55635;50.264;11.918;2023-10-13T08:44:13;95520.94;;;19.43;86.40
40946;BME280;55635;50.264;11.918;2023-10-13T08:47:14;95520.69;;;19.62;85.03
40946;BME280;55635;50.264;11.918;2023-10-13T08:50:01;95521.50;;;19.45;84.67
40946;BME280;55635;50.264;11.918;2023-10-13T08:52:51;95505.19;;;19.52;85.94
40946;BME280;55635;50.264;11.918;2023-10-13T08:55:37;95530.75;;;19.38;84.65
40946;BME280;55635;50.264;11.918;2023-10-13T08:58:29;95513.28;;;19.24;84.68
40946;BME280;55635;50.264;11.918;2023-10-13T09:01:37;95522.84;;;19.03;85.35
40946;BME280;55635;50.264;11.918;2023-10-13T09:04:20;95519.31;;;19.31;84.03
40946;BME280;55635;50.264;11.918;2023-10-13T09:07:03;95523.94;;;19.47;83.73
40946;BME280;55635;50.264;11.918;2023-10-13T09:09:49;95516.47;;;19.37;84.18
40946;BME280;55635;50.264;11.918;2023-10-13T09:12:33;95515.47;;;19.55;83.06
40946;BME280;55635;50.264;11.918;2023-10-13T09:15:13;95521.50;;;19.45;82.37
40946;BME280;55635;50.264;11.918;2023-10-13T09:17:54;95509.13;;;19.44;81.70
40946;BME280;55635;50.264;11.918;2023-10-13T09:20:59;95502.44;;;19.47;81.11
40946;BME280;55635;50.264;11.918;2023-10-13T09:24:00;95498.66;;;19.48;81.72
40946;BME280;55635;50.264;11.918;2023-10-13T09:27:11;95497.31;;;19.34;80.78
40946;BME280;55635;50.264;11.918;2023-10-13T09:30:01;95487.41;;;19.51;79.58
40946;BME280;55635;50.264;11.918;2023-10-13T09:33:04;95484.53;;;19.69;78.75
40946;BME280;55635;50.264;11.918;2023-10-13T09:35:45;95479.94;;;19.53;78.61
40946;BME280;55635;50.264;11.918;2023-10-13T09:38:35;95473.50;;;19.71;77.63
40946;BME280;55635;50.264;11.918;2023-10-13T09:41:16;95475.53;;;19.80;78.65
40946;BME280;55635;50.264;11.918;2023-10-13T09:44:07;95463.44;;;19.99;77.34
40946;BME280;55635;50.264;11.918;2023-10-13T09:46:49;95475.50;;;20.14;75.12
40946;BME280;55635;50.264;11.918;2023-10-13T09:49:39;95472.28;;;20.17;74.86
40946;BME280;55635;50.264;11.918;2023-10-13T09:52:27;95458.41;;;20.25;74.21
40946;BME280;55635;50.264;11.918;2023-10-13T09:55:16;95455.06;;;20.56;73.33
40946;BME280;55635;50.264;11.918;2023-10-13T09:58:04;95463.63;;;20.96;71.98
40946;BME280;55635;50.264;11.918;2023-10-13T10:00:57;95458.59;;;21.32;71.34
40946;BME280;55635;50.264;11.918;2023-10-13T10:03:48;95460.09;;;22.18;69.25
40946;BME280;55635;50.264;11.918;2023-10-13T10:06:36;95458.38;;;22.44;65.22
40946;BME280;55635;50.264;11.918;2023-10-13T10:09:30;95446.22;;;22.51;63.18
40946;BME280;55635;50.264;11.918;2023-10-13T10:12:57;95448.81;;;22.78;63.52
40946;BME280;55635;50.264;11.918;2023-10-13T10:15:44;95445.38;;;22.46;62.87
40946;BME280;55635;50.264;11.918;2023-10-13T10:18:27;95446.81;;;23.41;62.68
40946;BME280;55635;50.264;11.918;2023-10-13T10:21:08;95452.41;;;23.24;61.21
40946;BME280;55635;50.264;11.918;2023-10-13T10:23:54;95423.75;;;24.14;61.83
40946;BME280;55635;50.264;11.918;2023-10-13T10:26:35;95440.84;;;23.84;58.07
40946;BME280;55635;50.264;11.918;2023-10-13T10:29:16;95420.81;;;23.85;60.11
40946;BME280;55635;50.264;11.918;2023-10-13T10:31:56;95416.78;;;23.42;59.20
40946;BME280;55635;50.264;11.918;2023-10-13T10:34:37;95435.44;;;23.49;59.46
40946;BME280;55635;50.264;11.918;2023-10-13T10:37:19;95416.22;;;23.50;59.30
40946;BME280;55635;50.264;11.918;2023-10-13T10:40:01;95421.53;;;24.36;58.16
40946;BME280;55635;50.264;11.918;2023-10-13T10:42:51;95410.84;;;25.19;54.61
40946;BME280;55635;50.264;11.918;2023-10-13T10:45:33;95398.84;;;23.92;57.83
40946;BME280;55635;50.264;11.918;2023-10-13T10:48:14;95409.16;;;23.64;59.28
40946;BME280;55635;50.264;11.918;2023-10-13T10:50:59;95403.75;;;23.84;59.10
40946;BME280;55635;50.264;11.918;2023-10-13T10:53:52;95387.75;;;23.83;58.38
40946;BME280;55635;50.264;11.918;2023-10-13T10:56:33;95387.72;;;23.98;56.92
40946;BME280;55635;50.264;11.918;2023-10-13T10:59:17;95373.38;;;24.03;55.88
40946;BME280;55635;50.264;11.918;2023-10-13T11:02:03;95375.03;;;24.73;55.17
40946;BME280;55635;50.264;11.918;2023-10-13T11:04:50;95363.59;;;24.86;53.33
40946;BME280;55635;50.264;11.918;2023-10-13T11:07:31;95371.88;;;24.51;55.29
40946;BME280;55635;50.264;11.918;2023-10-13T11:10:15;95379.94;;;23.61;55.30
40946;BME280;55635;50.264;11.918;2023-10-13T11:13:07;95358.41;;;24.30;56.63
40946;BME280;55635;50.264;11.918;2023-10-13T11:16:02;95364.91;;;24.29;56.27
40946;BME280;55635;50.264;11.918;2023-10-13T11:18:44;95355.13;;;24.92;54.22
40946;BME280;55635;50.264;11.918;2023-10-13T11:21:29;95346.81;;;24.69;54.42
40946;BME280;55635;50.264;11.918;2023-10-13T11:24:11;95355.19;;;24.13;55.29
40946;BME280;55635;50.264;11.918;2023-10-13T11:26:52;95347.09;;;23.98;54.96
40946;BME280;55635;50.264;11.918;2023-10-13T11:29:35;95355.22;;;24.03;56.62
40946;BME280;55635;50.264;11.918;2023-10-13T11:32:16;95347.06;;;24.18;56.27
40946;BME280;55635;50.264;11.918;2023-10-13T11:35:01;95347.16;;;23.88;54.27
40946;BME280;55635;50.264;11.918;2023-10-13T11:37:42;95328.31;;;24.32;56.52
40946;BME280;55635;50.264;11.918;2023-10-13T11:40:24;95338.00;;;24.48;54.43
40946;BME280;55635;50.264;11.918;2023-10-13T11:43:24;95326.69;;;24.85;54.08
40946;BME280;55635;50.264;11.918;2023-10-13T11:46:05;95334.59;;;24.71;52.14
40946;BME280;55635;50.264;11.918;2023-10-13T11:48:48;95341.59;;;24.33;54.34
40946;BME280;55635;50.264;11.918;2023-10-13T11:51:35;95321.91;;;24.67;54.23
40946;BME280;55635;50.264;11.918;2023-10-13T11:54:22;95339.25;;;24.12;53.61
40946;BME280;55635;50.264;11.918;2023-10-13T11:57:03;95331.88;;;24.76;54.96
40946;BME280;55635;50.264;11.918;2023-10-13T11:59:46;95306.06;;;24.89;53.04
40946;BME280;55635;50.264;11.918;2023-10-13T12:02:33;95319.84;;;24.44;53.48
40946;BME280;55635;50.264;11.918;2023-10-13T12:05:34;95297.22;;;24.09;53.98
40946;BME280;55635;50.264;11.918;2023-10-13T12:08:30;95301.78;;;24.19;53.69
40946;BME280;55635;50.264;11.918;2023-10-13T12:11:13;95298.38;;;23.83;54.14
40946;BME280;55635;50.264;11.918;2023-10-13T12:14:13;95291.81;;;24.04;53.31
40946;BME280;55635;50.264;11.918;2023-10-13T12:17:10;95302.22;;;24.95;51.39
40946;BME280;55635;50.264;11.918;2023-10-13T12:19:58;95279.31;;;25.06;53.31
40946;BME280;55635;50.264;11.918;2023-10-13T12:22:39;95283.69;;;25.02;52.78
40946;BME280;55635;50.264;11.918;2023-10-13T12:25:23;95278.81;;;25.33;50.16
40946;BME280;55635;50.264;11.918;2023-10-13T12:28:15;95270.84;;;25.41;51.05
40946;BME280;55635;50.264;11.918;2023-10-13T12:31:04;95267.91;;;25.90;50.30
40946;BME280;55635;50.264;11.918;2023-10-13T12:33:49;95257.72;;;25.54;50.40
40946;BME280;55635;50.264;11.918;2023-10-13T12:36:30;95269.28;;;25.07;50.87
40946;BME280;55635;50.264;11.918;2023-10-13T12:39:38;95258.97;;;25.37;51.07
40946;BME280;55635;50.264;11.918;2023-10-13T12:42:37;95270.38;;;24.67;49.32
40946;BME280;55635;50.264;11.918;2023-10-13T12:45:41;95251.50;;;24.90;50.24
40946;BME280;55635;50.264;11.918;2023-10-13T12:48:41;95256.72;;;24.77;50.35
40946;BME280;55635;50.264;11.918;2023-10-13T12:51:41;95262.22;;;24.67;50.54
40946;BME280;55635;50.264;11.918;2023-10-13T12:54:31;95261.13;;;24.68;50.67
40946;BME280;55635;50.264;11.918;2023-10-13T12:57:16;95245.00;;;24.48;50.45
40946;BME280;55635;50.264;11.918;2023-10-13T12:59:57;95242.88;;;24.78;51.01
40946;BME280;55635;50.264;11.918;2023-10-13T13:02:38;95241.41;;;24.57;49.91
40946;BME280;55635;50.264;11.918;2023-10-13T13:05:19;95243.38;;;25.53;50.71
40946;BME280;55635;50.264;11.918;2023-10-13T13:08:04;95232.47;;;25.24;48.36
40946;BME280;55635;50.264;11.918;2023-10-13T13:10:45;95233.38;;;24.86;50.57
40946;BME280;55635;50.264;11.918;2023-10-13T13:13:28;95235.41;;;25.57;50.05
40946;BME280;55635;50.264;11.918;2023-10-13T13:16:09;95234.69;;;25.22;49.33
40946;BME280;55635;50.264;11.918;2023-10-13T13:18:51;95233.28;;;25.54;49.34
40946;BME280;55635;50.264;11.918;2023-10-13T13:21:31;95228.78;;;25.68;47.88
40946;BME280;55635;50.264;11.918;2023-10-13T13:24:13;95224.75;;;25.36;49.90
40946;BME280;55635;50.264;11.918;2023-10-13T13:26:54;95225.28;;;25.38;47.45
40946;BME280;55635;50.264;11.918;2023-10-13T13:29:35;95215.97;;;25.44;48.87
40946;BME280;55635;50.264;11.918;2023-10-13T13:32:18;95204.47;;;25.58;47.88
40946;BME280;55635;50.264;11.918;2023-10-13T13:35:08;95205.41;;;25.43;49.36
40946;BME280;55635;50.264;11.918;2023-10-13T13:37:54;95217.25;;;25.00;49.03
40946;BME280;55635;50.264;11.918;2023-10-13T13:40:38;95183.19;;;24.83;50.40
40946;BME280;55635;50.264;11.918;2023-10-13T13:43:20;95185.91;;;25.12;49.46
40946;BME280;55635;50.264;11.918;2023-10-13T13:46:23;95189.13;;;25.19;48.71
40946;BME280;55635;50.264;11.918;2023-10-13T13:49:24;95205.00;;;24.68;48.35
40946;BME280;55635;50.264;11.918;2023-10-13T13:52:20;95185.28;;;25.20;48.61
40946;BME280;55635;50.264;11.918;2023-10-13T13:55:14;95185.75;;;25.27;48.37
40946;BME280;55635;50.264;11.918;2023-10-13T13:57:58;95180.81;;;24.72;49.16
40946;BME280;55635;50.264;11.918;2023-10-13T14:00:39;95168.28;;;24.86;46.63
40946;BME280;55635;50.264;11.918;2023-10-13T14:03:27;95178.69;;;24.69;49.93
40946;BME280;55635;50.264;11.918;2023-10-13T14:06:15;95172.06;;;24.80;48.11
40946;BME280;55635;50.264;11.918;2023-10-13T14:09:04;95170.31;;;24.65;49.41
40946;BME280;55635;50.264;11.918;2023-10-13T14:12:13;95157.59;;;24.95;47.95
40946;BME280;55635;50.264;11.918;2023-10-13T14:15:12;95171.34;;;25.03;49.65
40946;BME280;55635;50.264;11.918;2023-10-13T14:18:00;95164.06;;;24.65;48.70
40946;BME280;55635;50.264;11.918;2023-10-13T14:20:46;95153.09;;;24.85;50.33
40946;BME280;55635;50.264;11.918;2023-10-13T14:23:27;95154.59;;;24.96;49.71
40946;BME280;55635;50.264;11.918;2023-10-13T14:26:08;95162.41;;;24.69;49.23
40946;BME280;55635;50.264;11.918;2023-10-13T14:28:51;95157.19;;;24.44;49.27
40946;BME280;55635;50.264;11.918;2023-10-13T14:31:50;95153.09;;;24.80;50.52
40946;BME280;55635;50.264;11.918;2023-10-13T14:34:31;95142.28;;;24.75;49.91